createdAt,value
2023-03-12T00:00:51.219Z,1.41
2023-03-12T00:01:51.210Z,1.42
2023-03-12T00:02:51.260Z,1.42
2023-03-12T00:03:51.263Z,1.41
2023-03-12T00:04:51.162Z,1.44
2023-03-12T00:05:51.167Z,1.48
2023-03-12T00:06:51.139Z,1.48
2023-03-12T00:07:51.147Z,1.48
2023-03-12T00:08:51.136Z,1.50
2023-03-12T00:09:51.179Z,1.52
2023-03-12T00:10:51.099Z,1.50
2023-03-12T00:11:51.109Z,1.50
2023-03-12T00:12:51.078Z,1.50
2023-03-12T00:13:51.109Z,1.49
2023-03-12T00:14:51.081Z,1.48
2023-03-12T00:15:51.112Z,1.48
2023-03-12T00:16:51.035Z,1.45
2023-03-12T00:17:51.048Z,1.42
2023-03-12T00:18:51.047Z,1.48
2023-03-12T00:19:51.038Z,1.49
2023-03-12T00:20:51.010Z,1.44
2023-03-12T00:21:51.000Z,1.44
2023-03-12T00:22:50.983Z,1.42
2023-03-12T00:23:51.004Z,1.42
2023-03-12T00:24:50.953Z,1.42
2023-03-12T00:25:50.954Z,1.42
2023-03-12T00:26:50.961Z,1.42
2023-03-12T00:27:51.206Z,1.42
2023-03-12T00:28:50.923Z,1.44
2023-03-12T00:29:50.923Z,1.44
2023-03-12T00:30:50.884Z,1.45
2023-03-12T00:31:50.944Z,1.48
2023-03-12T00:32:50.969Z,1.45
2023-03-12T00:33:50.914Z,1.48
2023-03-12T00:34:50.857Z,1.50
2023-03-12T00:35:50.886Z,1.48
2023-03-12T00:36:50.821Z,1.49
2023-03-12T00:37:50.837Z,1.53
2023-03-12T00:38:50.798Z,1.55
2023-03-12T00:39:50.814Z,1.53
2023-03-12T00:40:50.781Z,1.53
2023-03-12T00:41:50.780Z,1.55
2023-03-12T00:42:50.749Z,1.56
2023-03-12T00:43:50.775Z,1.55
2023-03-12T00:44:50.730Z,1.53
2023-03-12T00:45:50.748Z,1.53
2023-03-12T00:46:50.791Z,1.55
2023-03-12T00:47:50.708Z,1.58
2023-03-12T00:48:50.705Z,1.59
2023-03-12T00:49:50.696Z,1.63
2023-03-12T00:50:50.684Z,1.63
2023-03-12T00:51:50.683Z,1.63
2023-03-12T00:52:50.663Z,1.63
2023-03-12T00:53:50.661Z,1.66
2023-03-12T00:54:50.631Z,1.67
2023-03-12T00:55:50.640Z,1.68
2023-03-12T00:56:50.626Z,1.70
2023-03-12T00:57:50.616Z,1.70
2023-03-12T00:58:50.595Z,1.74
2023-03-12T00:59:50.600Z,1.76
2023-03-12T01:00:50.599Z,1.78
2023-03-12T01:01:50.588Z,1.80
2023-03-12T01:02:50.547Z,1.81
2023-03-12T01:03:50.606Z,1.84
2023-03-12T01:04:50.536Z,1.85
2023-03-12T01:05:50.539Z,1.87
2023-03-12T01:06:50.514Z,1.89
2023-03-12T01:07:50.518Z,1.89
2023-03-12T01:08:50.483Z,1.88
2023-03-12T01:09:50.511Z,1.88
2023-03-12T01:10:50.513Z,1.91
2023-03-12T01:11:50.468Z,1.88
2023-03-12T01:12:50.468Z,1.91
2023-03-12T01:13:50.444Z,1.91
2023-03-12T01:14:50.445Z,1.92
2023-03-12T01:15:50.533Z,1.91
2023-03-12T01:16:52.437Z,1.89
2023-03-12T01:17:50.398Z,1.92
2023-03-12T01:18:50.409Z,1.94
2023-03-12T01:19:50.373Z,1.94
2023-03-12T01:20:50.382Z,1.92
2023-03-12T01:21:50.379Z,1.95
2023-03-12T01:22:50.347Z,1.97
2023-03-12T01:23:50.335Z,1.95
2023-03-12T01:24:50.328Z,1.95
2023-03-12T01:25:50.323Z,1.95
2023-03-12T01:26:50.309Z,1.97
2023-03-12T01:27:50.300Z,1.99
2023-03-12T01:28:50.298Z,2.00
2023-03-12T01:29:50.270Z,1.95
2023-03-12T01:30:50.264Z,1.95
2023-03-12T01:31:50.348Z,1.99
2023-03-12T01:32:50.334Z,1.99
2023-03-12T01:33:50.252Z,1.99
2023-03-12T01:34:50.226Z,2.02
2023-03-12T01:35:50.352Z,2.02
2023-03-12T01:36:50.208Z,2.04
2023-03-12T01:37:50.187Z,2.02
2023-03-12T01:38:50.188Z,2.02
2023-03-12T01:39:50.168Z,2.04
2023-03-12T01:40:50.183Z,2.04
2023-03-12T01:41:50.150Z,2.02
2023-03-12T01:42:50.152Z,2.02
2023-03-12T01:43:50.109Z,2.02
2023-03-12T01:44:50.131Z,2.02
2023-03-12T01:45:50.134Z,2.06
2023-03-12T01:46:50.101Z,2.04
2023-03-12T01:47:50.078Z,2.06
2023-03-12T01:48:50.077Z,2.07
2023-03-12T01:49:50.070Z,2.06
2023-03-12T01:50:50.138Z,2.06
2023-03-12T01:51:50.031Z,2.07
2023-03-12T01:52:50.037Z,2.10
2023-03-12T01:53:50.027Z,2.10
2023-03-12T01:54:50.047Z,2.11
2023-03-12T01:55:49.980Z,2.08
2023-03-12T01:56:50.013Z,2.08
2023-03-12T01:57:50.007Z,2.08
2023-03-12T01:58:49.974Z,2.04
2023-03-12T01:59:49.934Z,2.06
2023-03-12T02:00:50.849Z,2.07
2023-03-12T02:01:49.940Z,2.06
2023-03-12T02:02:49.929Z,2.08
2023-03-12T02:03:49.972Z,2.11
2023-03-12T02:04:49.907Z,2.13
2023-03-12T02:05:49.871Z,2.13
2023-03-12T02:06:49.874Z,2.11
2023-03-12T02:07:49.880Z,2.10
2023-03-12T02:08:49.857Z,2.11
2023-03-12T02:09:49.839Z,2.10
2023-03-12T02:10:49.848Z,2.10
2023-03-12T02:11:49.817Z,2.10
2023-03-12T02:12:49.818Z,2.08
2023-03-12T02:13:49.815Z,2.07
2023-03-12T02:14:49.796Z,2.07
2023-03-12T02:15:49.790Z,2.07
2023-03-12T02:16:49.838Z,2.06
2023-03-12T02:17:49.782Z,2.08
2023-03-12T02:18:49.781Z,2.11
2023-03-12T02:19:49.742Z,2.08
2023-03-12T02:20:49.868Z,2.06
2023-03-12T02:21:49.725Z,2.06
2023-03-12T02:22:49.717Z,2.07
2023-03-12T02:23:49.686Z,2.06
2023-03-12T02:24:53.383Z,2.07
2023-03-12T02:25:49.664Z,2.07
2023-03-12T02:26:49.696Z,2.08
2023-03-12T02:27:49.650Z,2.08
2023-03-12T02:28:55.661Z,2.07
2023-03-12T07:00:54.482Z,2.68
2023-03-12T07:01:54.796Z,2.68
2023-03-12T07:02:55.264Z,2.71
2023-03-12T07:03:54.738Z,2.72
2023-03-12T07:04:54.779Z,2.75
2023-03-12T07:05:54.734Z,2.79
2023-03-12T07:06:54.696Z,2.77
2023-03-12T07:07:54.704Z,2.79
2023-03-12T07:08:54.696Z,2.80
2023-03-12T07:09:54.680Z,2.82
2023-03-12T07:10:54.652Z,2.82
2023-03-12T07:11:54.656Z,2.82
2023-03-12T07:12:54.652Z,2.85
2023-03-12T07:13:54.654Z,2.85
2023-03-12T07:14:54.636Z,2.85
2023-03-12T07:15:54.672Z,2.83
2023-03-12T07:16:54.606Z,2.85
2023-03-12T07:17:54.614Z,2.85
2023-03-12T07:18:54.591Z,2.85
2023-03-12T07:19:54.609Z,2.86
2023-03-12T07:20:54.607Z,2.85
2023-03-12T07:21:54.576Z,2.85
2023-03-12T07:22:54.570Z,2.87
2023-03-12T07:23:54.540Z,2.87
2023-03-12T07:24:54.522Z,2.87
2023-03-12T07:25:54.526Z,2.86
2023-03-12T07:26:54.490Z,2.89
2023-03-12T07:27:54.534Z,2.89
2023-03-12T07:28:54.528Z,2.87
2023-03-12T07:29:54.479Z,2.87
2023-03-12T07:30:54.458Z,2.86
2023-03-12T07:31:54.460Z,2.85
2023-03-12T07:32:54.463Z,2.85
2023-03-12T07:33:54.512Z,2.86
2023-03-12T07:34:54.426Z,2.87
2023-03-12T07:35:54.569Z,2.89
2023-03-12T07:36:54.561Z,2.87
2023-03-12T07:37:54.460Z,2.89
2023-03-12T07:38:54.370Z,2.87
2023-03-12T07:39:54.463Z,2.89
2023-03-12T07:40:54.394Z,2.89
2023-03-12T07:41:54.370Z,2.90
2023-03-12T07:42:54.327Z,2.92
2023-03-12T07:43:54.352Z,2.93
2023-03-12T07:44:54.326Z,2.93
2023-03-12T07:45:54.312Z,2.95
2023-03-12T07:46:54.482Z,2.95
2023-03-12T07:47:54.310Z,2.97
2023-03-12T07:48:54.264Z,2.95
2023-03-12T07:49:54.413Z,2.95
2023-03-12T07:50:54.259Z,2.92
2023-03-12T07:51:54.278Z,2.92
2023-03-12T07:52:54.226Z,2.89
2023-03-12T07:53:54.232Z,2.87
2023-03-12T07:54:54.205Z,2.86
2023-03-12T07:55:54.921Z,2.86
2023-03-12T07:56:54.393Z,2.85
2023-03-12T07:57:54.230Z,2.83
2023-03-12T07:58:54.371Z,2.82
2023-03-12T07:59:54.195Z,2.80
2023-03-12T08:00:54.188Z,2.82
2023-03-12T08:01:54.225Z,2.83
2023-03-12T08:02:54.896Z,2.82
2023-03-12T08:03:54.150Z,2.80
2023-03-12T08:04:54.164Z,2.77
2023-03-12T08:05:54.118Z,2.77
2023-03-12T08:06:54.248Z,2.77
2023-03-12T08:07:54.083Z,2.77
2023-03-12T08:08:54.117Z,2.80
2023-03-12T08:09:54.111Z,2.82
2023-03-12T08:10:54.024Z,2.85
2023-03-12T08:11:54.073Z,2.85
2023-03-12T08:12:54.099Z,2.83
2023-03-12T08:13:54.013Z,2.82
2023-03-12T08:14:54.037Z,2.82
2023-03-12T08:15:54.162Z,2.80
2023-03-12T08:16:53.971Z,2.82
2023-03-12T08:17:53.973Z,2.79
2023-03-12T08:18:53.959Z,2.77
2023-03-12T08:19:54.228Z,2.74
2023-03-12T08:20:53.934Z,2.74
2023-03-12T08:21:53.939Z,2.75
2023-03-12T08:22:53.911Z,2.75
2023-03-12T08:23:53.924Z,2.74
2023-03-12T08:24:53.893Z,2.74
2023-03-12T08:25:53.940Z,2.74
2023-03-12T08:26:53.899Z,2.74
2023-03-12T08:27:53.872Z,2.75
2023-03-12T08:28:53.844Z,2.75
2023-03-12T08:29:53.885Z,2.77
2023-03-12T08:30:53.835Z,2.80
2023-03-12T08:32:04.117Z,2.80
2023-03-12T08:32:53.927Z,2.75
2023-03-12T08:33:53.804Z,2.77
2023-03-12T08:34:53.787Z,2.77
2023-03-12T08:35:53.839Z,2.77
2023-03-12T08:36:53.782Z,2.77
2023-03-12T08:37:53.772Z,2.77
2023-03-12T08:38:53.751Z,2.79
2023-03-12T08:39:53.746Z,2.79
2023-03-12T08:40:53.720Z,2.75
2023-03-12T08:41:53.751Z,2.75
2023-03-12T08:42:53.695Z,2.74
2023-03-12T08:43:53.705Z,2.69
2023-03-12T08:44:53.679Z,2.72
2023-03-12T08:45:53.752Z,2.71
2023-03-12T08:46:53.674Z,2.69
2023-03-12T08:47:53.691Z,2.71
2023-03-12T08:48:53.648Z,2.71
2023-03-12T08:49:53.637Z,2.69
2023-03-12T08:50:53.630Z,2.71
2023-03-12T08:51:53.615Z,2.67
2023-03-12T08:52:53.653Z,2.65
2023-03-12T08:53:53.607Z,2.65
2023-03-12T08:54:53.577Z,2.64
2023-03-12T08:55:53.588Z,2.67
2023-03-12T08:56:53.598Z,2.65
2023-03-12T08:57:53.559Z,2.68
2023-03-12T08:58:53.558Z,2.68
2023-03-12T08:59:53.543Z,2.69
2023-03-12T09:00:54.297Z,2.71
2023-03-12T09:01:53.514Z,2.71
2023-03-12T09:02:53.528Z,2.72
2023-03-12T09:03:53.512Z,2.72
2023-03-12T09:04:53.507Z,2.75
2023-03-12T09:05:53.504Z,2.77
2023-03-12T09:06:53.456Z,2.77
2023-03-12T09:07:53.478Z,2.77
2023-03-12T09:08:53.451Z,2.79
2023-03-12T09:09:53.463Z,2.79
2023-03-12T09:10:53.418Z,2.80
2023-03-12T09:11:53.408Z,2.80
2023-03-12T09:12:53.413Z,2.80
2023-03-12T09:14:46.267Z,2.82
2023-03-12T09:15:04.548Z,2.85
2023-03-12T09:15:53.386Z,2.85
2023-03-12T09:16:53.418Z,2.90
2023-03-12T09:17:53.361Z,2.87
2023-03-12T09:18:53.369Z,2.89
2023-03-12T09:19:53.385Z,2.92
2023-03-12T09:20:53.315Z,2.92
2023-03-12T09:21:53.329Z,2.93
2023-03-12T09:22:53.314Z,2.95
2023-03-12T09:23:53.300Z,2.93
2023-03-12T09:24:53.277Z,2.93
2023-03-12T09:25:53.288Z,2.95
2023-03-12T09:26:53.277Z,2.92
2023-03-12T09:27:53.269Z,2.92
2023-03-12T09:28:53.261Z,2.92
2023-03-12T09:30:00.028Z,2.93
2023-03-12T09:30:53.261Z,2.92
2023-03-12T09:31:53.250Z,2.92
2023-03-12T09:32:53.243Z,2.92
2023-03-12T09:33:53.204Z,2.92
2023-03-12T09:34:53.167Z,2.92
2023-03-12T09:35:53.231Z,2.90
2023-03-12T09:36:53.157Z,2.92
2023-03-12T09:37:53.149Z,2.93
2023-03-12T09:38:53.156Z,2.95
2023-03-12T09:39:53.164Z,2.97
2023-03-12T09:40:53.131Z,2.97
2023-03-12T09:41:53.132Z,2.98
2023-03-12T09:42:53.084Z,3.01
2023-03-12T09:43:53.086Z,3.03
2023-03-12T09:44:53.049Z,3.03
2023-03-12T09:45:53.117Z,3.01
2023-03-12T09:46:53.036Z,3.03
2023-03-12T09:47:53.047Z,3.07
2023-03-12T09:48:53.020Z,3.07
2023-03-12T09:49:53.029Z,3.07
2023-03-12T09:50:52.988Z,3.07
2023-03-12T09:51:53.062Z,3.08
2023-03-12T09:52:52.999Z,3.10
2023-03-12T09:53:53.004Z,3.13
2023-03-12T09:54:52.979Z,3.11
2023-03-12T09:55:52.999Z,3.10
2023-03-12T09:56:52.953Z,3.10
2023-03-12T09:57:52.977Z,3.10
2023-03-12T09:58:52.920Z,3.10
2023-03-12T09:59:52.962Z,3.11
2023-03-12T10:00:52.891Z,3.10
2023-03-12T10:01:52.895Z,3.10
2023-03-12T10:02:53.076Z,3.11
2023-03-12T10:03:52.893Z,3.11
2023-03-12T10:04:59.815Z,3.11
2023-03-12T10:05:52.919Z,3.13
2023-03-12T10:06:52.852Z,3.14
2023-03-12T10:07:52.912Z,3.13
2023-03-12T10:08:52.825Z,3.10
2023-03-12T10:09:52.853Z,3.11
2023-03-12T10:10:52.793Z,3.13
2023-03-12T10:11:52.821Z,3.14
2023-03-12T10:12:52.807Z,3.14
2023-03-12T10:13:52.788Z,3.16
2023-03-12T10:14:52.784Z,3.18
2023-03-12T10:15:52.860Z,3.18
2023-03-12T10:16:52.766Z,3.16
2023-03-12T10:17:52.889Z,3.18
2023-03-12T10:18:53.047Z,3.16
2023-03-12T10:19:52.720Z,3.19
2023-03-12T10:20:52.732Z,3.22
2023-03-12T10:21:52.695Z,3.21
2023-03-12T10:22:52.716Z,3.22
2023-03-12T10:23:52.684Z,3.22
2023-03-12T10:24:52.663Z,3.23
2023-03-12T10:25:52.670Z,3.23
2023-03-12T10:26:52.647Z,3.23
2023-03-12T10:27:52.646Z,3.25
2023-03-12T10:28:52.610Z,3.23
2023-03-12T10:29:52.623Z,3.23
2023-03-12T10:30:52.619Z,3.23
2023-03-12T10:31:52.598Z,3.22
2023-03-12T10:32:52.616Z,3.25
2023-03-12T10:33:52.569Z,3.29
2023-03-12T10:34:52.538Z,3.28
2023-03-12T10:35:52.649Z,3.29
2023-03-12T10:36:52.530Z,3.28
2023-03-12T10:37:52.580Z,3.29
2023-03-12T10:38:52.508Z,3.29
2023-03-12T10:39:52.518Z,3.28
2023-03-12T10:40:52.494Z,3.28
2023-03-12T10:41:52.487Z,3.28
2023-03-12T10:42:52.461Z,3.31
2023-03-12T10:43:52.492Z,3.32
2023-03-12T10:44:52.444Z,3.34
2023-03-12T10:45:52.443Z,3.42
2023-03-12T10:46:52.419Z,3.42
2023-03-12T10:47:52.453Z,3.44
2023-03-12T10:48:52.412Z,3.44
2023-03-12T10:49:52.428Z,3.48
2023-03-12T10:50:52.410Z,3.51
2023-03-12T10:51:52.381Z,3.53
2023-03-12T10:52:52.389Z,3.56
2023-03-12T10:53:52.368Z,3.59
2023-03-12T10:54:52.364Z,3.60
2023-03-12T10:55:52.366Z,3.65
2023-03-12T10:56:52.331Z,3.65
2023-03-12T10:57:52.335Z,3.66
2023-03-12T10:58:52.362Z,3.69
2023-03-12T10:59:52.311Z,3.69
2023-03-12T11:00:52.329Z,3.73
2023-03-12T11:01:52.337Z,3.76
2023-03-12T11:02:52.286Z,3.77
2023-03-12T11:03:52.267Z,3.80
2023-03-12T11:04:52.262Z,3.84
2023-03-12T11:05:52.294Z,3.86
2023-03-12T11:06:52.241Z,3.87
2023-03-12T11:07:52.222Z,3.91
2023-03-12T11:08:55.025Z,3.95
2023-03-12T11:09:52.215Z,3.95
2023-03-12T11:10:52.248Z,3.95
2023-03-12T11:11:52.278Z,3.96
2023-03-12T11:12:52.212Z,3.98
2023-03-12T11:13:52.149Z,3.99
2023-03-12T11:14:52.179Z,3.99
2023-03-12T11:15:52.250Z,4.01
2023-03-12T11:16:52.161Z,4.01
2023-03-12T11:17:52.118Z,4.04
2023-03-12T11:18:52.141Z,4.05
2023-03-12T11:19:52.094Z,4.05
2023-03-12T11:20:52.080Z,4.06
2023-03-12T11:21:52.075Z,4.08
2023-03-12T11:22:52.076Z,4.10
2023-03-12T11:23:52.079Z,4.10
2023-03-12T11:24:52.041Z,4.12
2023-03-12T11:25:52.019Z,4.13
2023-03-12T11:26:52.032Z,4.13
2023-03-12T11:27:52.006Z,4.14
2023-03-12T11:28:52.004Z,4.20
2023-03-12T11:29:52.107Z,4.23
2023-03-12T11:30:52.065Z,4.26
2023-03-12T11:31:51.985Z,4.31
2023-03-12T11:32:52.017Z,4.34
2023-03-12T11:33:51.968Z,4.38
2023-03-12T11:34:51.939Z,4.37
2023-03-12T11:35:51.983Z,4.38
2023-03-12T11:36:51.988Z,4.38
2023-03-12T11:37:51.897Z,4.42
2023-03-12T11:38:51.888Z,4.42
2023-03-12T11:39:51.885Z,4.50
2023-03-12T11:40:51.974Z,4.53
2023-03-12T11:41:51.864Z,4.58
2023-03-12T11:42:52.151Z,4.58
2023-03-12T11:43:51.845Z,4.59
2023-03-12T11:44:51.855Z,4.60
2023-03-12T11:45:51.831Z,4.63
2023-03-12T11:46:51.855Z,4.66
2023-03-12T11:47:51.897Z,4.63
2023-03-12T11:48:51.837Z,4.66
2023-03-12T11:49:51.792Z,4.68
2023-03-12T11:50:51.815Z,4.71
2023-03-12T11:51:51.782Z,4.70
2023-03-12T11:52:51.782Z,4.71
2023-03-12T11:53:51.742Z,4.74
2023-03-12T11:54:51.744Z,4.75
2023-03-12T11:55:51.725Z,4.77
2023-03-12T11:56:51.717Z,4.80
2023-03-12T11:57:51.711Z,4.84
2023-03-12T11:58:51.706Z,4.87
2023-03-12T11:59:51.681Z,4.87
2023-03-12T12:00:51.806Z,4.90
2023-03-12T12:01:51.736Z,4.93
2023-03-12T12:02:51.807Z,4.94
2023-03-12T12:03:51.622Z,4.96
2023-03-12T12:04:51.661Z,4.97
2023-03-12T12:05:51.639Z,5.00
2023-03-12T12:06:51.620Z,4.99
2023-03-12T12:07:51.598Z,5.02
2023-03-12T12:08:51.643Z,5.05
2023-03-12T12:09:51.608Z,5.07
2023-03-12T12:10:51.599Z,5.11
2023-03-12T12:11:51.581Z,5.14
2023-03-12T12:12:51.566Z,5.15
2023-03-12T12:13:51.538Z,5.21
2023-03-12T12:14:51.554Z,5.26
2023-03-12T12:15:51.509Z,5.29
2023-03-12T12:16:51.585Z,5.35
2023-03-12T12:17:51.481Z,5.41
2023-03-12T12:18:51.478Z,5.39
2023-03-12T12:19:51.468Z,5.46
2023-03-12T12:20:51.485Z,5.47
2023-03-12T12:21:51.430Z,5.47
2023-03-12T12:22:51.443Z,5.47
2023-03-12T12:23:51.431Z,5.50
2023-03-12T12:24:51.441Z,5.54
2023-03-12T12:25:51.456Z,5.57
2023-03-12T12:26:51.401Z,5.62
2023-03-12T12:27:51.516Z,5.65
2023-03-12T12:28:51.463Z,5.71
2023-03-12T12:29:51.374Z,5.76
2023-03-12T12:30:51.384Z,5.84
2023-03-12T12:31:51.439Z,5.89
2023-03-12T12:32:51.398Z,5.97
2023-03-12T12:33:51.300Z,6.02
2023-03-12T12:34:51.308Z,6.09
2023-03-12T12:35:51.318Z,6.12
2023-03-12T12:36:51.318Z,6.19
2023-03-12T12:37:51.346Z,6.24
2023-03-12T12:38:51.296Z,6.28
2023-03-12T12:39:51.240Z,6.31
2023-03-12T12:40:51.246Z,6.35
2023-03-12T12:41:51.223Z,6.35
2023-03-12T12:42:51.231Z,6.35
2023-03-12T12:43:51.200Z,6.39
2023-03-12T12:44:51.217Z,6.41
2023-03-12T12:45:51.190Z,6.45
2023-03-12T12:46:51.193Z,6.49
2023-03-12T12:47:51.154Z,6.52
2023-03-12T12:48:51.168Z,6.62
2023-03-12T12:49:51.140Z,6.63
2023-03-12T12:50:51.167Z,6.67
2023-03-12T12:51:51.115Z,6.72
2023-03-12T12:52:51.177Z,6.75
2023-03-12T12:53:51.128Z,6.78
2023-03-12T12:54:51.126Z,6.81
2023-03-12T12:55:51.107Z,6.84
2023-03-12T12:56:51.083Z,6.89
2023-03-12T12:57:51.060Z,6.95
2023-03-12T12:58:51.116Z,7.02
2023-03-12T12:59:51.048Z,7.07
2023-03-12T13:00:51.159Z,7.13
2023-03-12T13:01:51.005Z,7.20
2023-03-12T13:02:51.253Z,7.29
2023-03-12T13:03:51.007Z,7.33
2023-03-12T13:04:51.010Z,7.40
2023-03-12T13:05:50.972Z,7.45
2023-03-12T13:06:50.987Z,7.50
2023-03-12T13:07:50.985Z,7.56
2023-03-12T13:08:50.991Z,7.57
2023-03-12T13:09:51.119Z,7.58
2023-03-12T13:10:57.860Z,7.63
2023-03-12T13:11:51.066Z,7.67
2023-03-12T13:12:51.096Z,7.67
2023-03-12T13:13:51.158Z,7.69
2023-03-12T13:14:50.919Z,7.72
2023-03-12T13:15:51.061Z,7.76
2023-03-12T13:16:50.883Z,7.79
2023-03-12T13:17:50.861Z,7.79
2023-03-12T13:18:50.864Z,7.82
2023-03-12T13:20:00.960Z,7.82
2023-03-12T13:20:50.847Z,7.87
2023-03-12T13:21:50.854Z,7.90
2023-03-12T13:22:50.818Z,7.95
2023-03-12T13:23:50.803Z,8.01
2023-03-12T13:24:50.812Z,8.06
2023-03-12T13:25:50.761Z,8.15
2023-03-12T13:26:50.769Z,8.19
2023-03-12T13:27:50.770Z,8.24
2023-03-12T13:28:51.831Z,8.30
2023-03-12T13:29:50.836Z,8.30
2023-03-12T13:30:50.823Z,8.36
2023-03-12T13:31:50.694Z,8.37
2023-03-12T13:32:50.766Z,8.44
2023-03-12T13:33:50.688Z,8.46
2023-03-12T13:34:50.760Z,8.51
2023-03-12T13:35:50.801Z,8.53
2023-03-12T13:36:50.661Z,8.56
2023-03-12T13:37:50.643Z,8.56
2023-03-12T13:38:50.637Z,8.60
2023-03-12T13:39:50.647Z,8.61
2023-03-12T13:40:50.650Z,8.64
2023-03-12T13:41:50.625Z,8.70
2023-03-12T13:42:50.607Z,8.70
2023-03-12T13:43:50.584Z,8.70
2023-03-12T13:44:50.583Z,8.74
2023-03-12T13:45:50.599Z,8.73
2023-03-12T13:46:50.573Z,8.79
2023-03-12T13:47:50.562Z,8.84
2023-03-12T13:48:50.538Z,8.87
2023-03-12T13:49:50.643Z,8.89
2023-03-12T13:50:50.508Z,8.92
2023-03-12T13:51:50.505Z,8.92
2023-03-12T13:52:50.513Z,8.94
2023-03-12T13:53:50.499Z,8.94
2023-03-12T13:54:50.518Z,8.91
2023-03-12T13:55:50.451Z,8.91
2023-03-12T13:56:50.452Z,8.92
2023-03-12T13:57:50.459Z,8.94
2023-03-12T13:58:50.430Z,8.91
2023-03-12T13:59:50.453Z,8.92
2023-03-12T14:00:50.413Z,8.92
2023-03-12T14:01:50.402Z,8.94
2023-03-12T14:02:50.394Z,8.94
2023-03-12T14:03:50.369Z,8.95
2023-03-12T14:04:50.469Z,8.94
2023-03-12T14:05:50.343Z,8.95
2023-03-12T14:06:50.359Z,8.95
2023-03-12T14:07:50.319Z,8.95
2023-03-12T14:08:50.329Z,8.99
2023-03-12T14:09:50.315Z,8.99
2023-03-12T14:10:50.341Z,9.02
2023-03-12T14:11:50.290Z,9.02
2023-03-12T14:12:50.294Z,9.00
2023-03-12T14:13:50.261Z,8.99
2023-03-12T14:14:50.254Z,8.95
2023-03-12T14:15:50.284Z,8.94
2023-03-12T14:16:50.238Z,8.94
2023-03-12T14:17:50.218Z,8.94
2023-03-12T14:18:50.226Z,8.95
2023-03-12T14:19:50.210Z,8.97
2023-03-12T14:20:50.223Z,8.97
2023-03-12T14:21:50.173Z,8.97
2023-03-12T14:22:50.205Z,8.95
2023-03-12T14:23:50.156Z,8.94
2023-03-12T14:24:50.164Z,8.95
2023-03-12T14:25:50.143Z,8.92
2023-03-12T14:26:50.157Z,8.91
2023-03-12T14:27:50.103Z,8.89
2023-03-12T14:28:50.115Z,8.88
2023-03-12T14:29:50.094Z,8.89
2023-03-12T14:30:50.178Z,8.88
2023-03-12T14:31:50.112Z,8.91
2023-03-12T14:32:50.140Z,8.92
2023-03-12T14:33:50.046Z,8.92
2023-03-12T14:34:50.059Z,8.92
2023-03-12T14:35:51.300Z,8.92
2023-03-12T14:36:50.248Z,8.89
2023-03-12T14:37:50.161Z,8.88
2023-03-12T14:38:50.091Z,8.87
2023-03-12T14:39:51.007Z,8.88
2023-03-12T14:40:49.988Z,8.87
2023-03-12T14:41:50.011Z,8.87
2023-03-12T14:42:50.085Z,8.88
2023-03-12T14:43:49.989Z,8.87
2023-03-12T14:44:50.055Z,8.85
2023-03-12T14:45:49.941Z,8.85
2023-03-12T14:46:50.008Z,8.84
2023-03-12T14:47:49.914Z,8.85
2023-03-12T14:48:49.908Z,8.84
2023-03-12T14:49:49.887Z,8.85
2023-03-12T14:50:49.874Z,8.84
2023-03-12T14:51:49.857Z,8.81
2023-03-12T14:52:49.893Z,8.81
2023-03-12T14:53:49.839Z,8.82
2023-03-12T14:54:49.840Z,8.82
2023-03-12T14:55:49.841Z,8.81
2023-03-12T14:56:49.825Z,8.79
2023-03-12T14:57:49.792Z,8.81
2023-03-12T14:58:49.817Z,8.78
2023-03-12T14:59:49.780Z,8.71
2023-03-12T15:00:49.795Z,8.70
2023-03-12T15:01:49.943Z,8.70
2023-03-12T15:02:49.777Z,8.69
2023-03-12T15:03:49.747Z,8.66
2023-03-12T15:04:49.795Z,8.64
2023-03-12T15:09:23.899Z,8.60
2023-03-12T15:10:24.880Z,8.60
2023-03-12T15:11:24.839Z,8.58
2023-03-12T15:12:24.848Z,8.55
2023-03-12T15:13:24.816Z,8.55
2023-03-12T15:14:24.846Z,8.58
2023-03-12T15:15:24.805Z,8.60
2023-03-12T15:16:24.834Z,8.58
2023-03-12T15:17:24.777Z,8.60
2023-03-12T15:18:24.768Z,8.60
2023-03-12T15:19:25.103Z,8.61
2023-03-12T15:20:24.770Z,8.61
2023-03-12T15:21:24.752Z,8.60
2023-03-12T15:22:24.822Z,8.61
2023-03-12T15:23:24.833Z,8.64
2023-03-12T15:24:24.713Z,8.66
2023-03-12T15:25:24.715Z,8.66
2023-03-12T15:26:24.709Z,8.69
2023-03-12T15:27:24.676Z,8.69
2023-03-12T15:28:24.680Z,8.73
2023-03-12T15:29:24.654Z,8.74
2023-03-12T15:30:24.684Z,8.76
2023-03-12T15:31:24.737Z,8.76
2023-03-12T15:32:24.836Z,8.79
2023-03-12T15:33:24.605Z,8.81
2023-03-12T15:34:24.637Z,8.84
2023-03-12T15:35:24.806Z,8.84
2023-03-12T15:36:24.702Z,8.85
2023-03-12T15:37:24.581Z,8.85
2023-03-12T15:38:24.609Z,8.85
2023-03-12T15:39:24.621Z,8.88
2023-03-12T15:40:24.552Z,8.88
2023-03-12T15:41:24.528Z,8.89
2023-03-12T15:42:24.672Z,8.89
2023-03-12T15:43:24.517Z,8.89
2023-03-12T15:44:24.512Z,8.92
2023-03-12T15:45:24.531Z,8.92
2023-03-12T15:46:24.657Z,8.92
2023-03-12T15:47:24.449Z,8.91
2023-03-12T15:48:24.482Z,8.89
2023-03-12T15:49:24.444Z,8.91
2023-03-12T15:50:24.433Z,8.89
2023-03-12T15:51:24.419Z,8.91
2023-03-12T15:52:24.406Z,8.89
2023-03-12T15:53:24.391Z,8.89
2023-03-12T15:54:24.416Z,8.87
2023-03-12T15:55:26.952Z,8.88
2023-03-12T15:56:24.396Z,8.88
2023-03-12T15:57:24.359Z,8.87
2023-03-12T15:58:24.347Z,8.87
2023-03-12T15:59:24.347Z,8.87
2023-03-12T16:00:24.355Z,8.87
2023-03-12T16:01:24.393Z,8.89
2023-03-12T16:02:24.394Z,8.89
2023-03-12T16:03:24.275Z,8.89
2023-03-12T16:04:24.286Z,8.88
2023-03-12T16:05:24.307Z,8.89
2023-03-12T16:06:24.280Z,8.89
2023-03-12T16:07:24.261Z,8.91
2023-03-12T16:08:24.254Z,8.89
2023-03-12T16:09:24.242Z,8.89
2023-03-12T16:10:24.225Z,8.91
2023-03-12T16:11:24.214Z,8.88
2023-03-12T16:12:24.262Z,8.89
2023-03-12T16:13:24.167Z,8.89
2023-03-12T16:14:24.178Z,8.89
2023-03-12T16:15:24.160Z,8.91
2023-03-12T16:16:24.185Z,8.89
2023-03-12T16:17:24.122Z,8.91
2023-03-12T16:18:24.160Z,8.89
2023-03-12T16:19:24.167Z,8.91
2023-03-12T16:20:24.134Z,8.92
2023-03-12T16:21:24.084Z,8.92
2023-03-12T16:22:24.102Z,8.91
2023-03-12T16:23:24.093Z,8.92
2023-03-12T16:24:24.068Z,8.91
2023-03-12T16:25:24.056Z,8.89
2023-03-12T16:26:24.040Z,8.91
2023-03-12T16:27:32.575Z,8.89
2023-03-12T16:28:24.032Z,8.91
2023-03-12T16:29:24.017Z,8.89
2023-03-12T16:30:24.021Z,8.89
2023-03-12T16:31:24.001Z,8.89
2023-03-12T16:32:24.049Z,8.91
2023-03-12T16:33:23.975Z,8.91
2023-03-12T16:34:23.998Z,8.89
2023-03-12T16:35:24.020Z,8.91
2023-03-12T16:36:23.946Z,8.89
2023-03-12T16:37:23.920Z,8.87
2023-03-12T16:38:23.926Z,8.89
2023-03-12T16:39:23.909Z,8.88
2023-03-12T16:40:33.450Z,8.88
2023-03-12T16:41:23.870Z,8.88
2023-03-12T16:42:23.874Z,8.87
2023-03-12T16:43:23.884Z,8.87
2023-03-12T16:44:23.863Z,8.87
2023-03-12T16:45:23.828Z,8.88
2023-03-12T16:46:23.866Z,8.88
2023-03-12T16:47:23.813Z,8.88
2023-03-12T16:48:23.805Z,8.88
2023-03-12T16:49:23.789Z,8.89
2023-03-12T16:50:23.884Z,8.89
2023-03-12T16:51:23.769Z,8.87
2023-03-12T16:52:23.768Z,8.88
2023-03-12T16:53:23.755Z,8.88
2023-03-12T16:54:23.738Z,8.87
2023-03-12T16:55:23.785Z,8.87
2023-03-12T16:56:23.750Z,8.85
2023-03-12T16:57:23.719Z,8.87
2023-03-12T16:58:23.703Z,8.85
2023-03-12T16:59:23.697Z,8.87
2023-03-12T17:00:23.721Z,8.87
2023-03-12T17:01:23.674Z,8.85
2023-03-12T17:02:23.701Z,8.87
2023-03-12T17:03:23.632Z,8.85
2023-03-12T17:04:23.814Z,8.82
2023-03-12T17:05:23.638Z,8.84
2023-03-12T17:06:23.658Z,8.84
2023-03-12T17:07:23.590Z,8.84
2023-03-12T17:08:23.603Z,8.82
2023-03-12T17:09:23.583Z,8.84
2023-03-12T17:10:23.573Z,8.81
2023-03-12T17:11:23.536Z,8.81
2023-03-12T17:12:23.547Z,8.79
2023-03-12T17:13:23.541Z,8.79
2023-03-12T17:14:23.549Z,8.81
2023-03-12T17:15:23.516Z,8.79
2023-03-12T17:16:23.631Z,8.79
2023-03-12T17:17:23.483Z,8.79
2023-03-12T17:18:23.494Z,8.76
2023-03-12T17:19:23.482Z,8.78
2023-03-12T17:20:23.531Z,8.76
2023-03-12T17:21:23.466Z,8.76
2023-03-12T17:22:23.445Z,8.76
2023-03-12T17:23:23.423Z,8.76
2023-03-12T17:24:23.415Z,8.76
2023-03-12T17:25:23.392Z,8.76
2023-03-12T17:26:23.405Z,8.76
2023-03-12T17:27:23.373Z,8.76
2023-03-12T17:28:23.386Z,8.78
2023-03-12T17:29:23.345Z,8.78
2023-03-12T17:30:23.372Z,8.79
2023-03-12T17:31:23.373Z,8.81
2023-03-12T17:32:23.379Z,8.78
2023-03-12T17:33:23.323Z,8.81
2023-03-12T17:34:23.370Z,8.79
2023-03-12T17:35:23.316Z,8.81
2023-03-12T17:36:23.296Z,8.81
2023-03-12T17:37:23.267Z,8.81
2023-03-12T17:38:23.275Z,8.81
2023-03-12T17:39:23.269Z,8.81
2023-03-12T17:40:23.258Z,8.82
2023-03-12T17:41:26.849Z,8.82
2023-03-12T17:42:23.269Z,8.82
2023-03-12T17:43:23.262Z,8.82
2023-03-12T17:44:23.253Z,8.82
2023-03-12T17:45:23.244Z,8.81
2023-03-12T17:46:23.282Z,8.84
2023-03-12T17:47:23.219Z,8.84
2023-03-12T17:48:23.201Z,8.84
2023-03-12T17:49:23.202Z,8.82
2023-03-12T17:50:23.188Z,8.82
2023-03-12T17:51:23.207Z,8.84
2023-03-12T17:52:23.157Z,8.85
2023-03-12T17:53:23.159Z,8.85